createdAt,value
2022-10-18T00:03:34.421Z,100784.00
2022-10-18T00:08:38.589Z,100776.84
2022-10-18T00:13:41.627Z,100776.08
2022-10-18T00:18:45.356Z,100775.65
2022-10-18T00:23:49.890Z,100772.58
2022-10-18T00:28:58.465Z,100770.54
2022-10-18T00:34:10.444Z,100775.70
2022-10-18T00:39:19.391Z,100784.99
2022-10-18T00:44:25.058Z,100779.11
2022-10-18T00:49:32.994Z,100787.19
2022-10-18T00:54:39.170Z,100790.07
2022-10-18T00:59:43.192Z,100789.90
2022-10-18T01:04:47.563Z,100795.64
2022-10-18T01:10:02.416Z,100793.67
2022-10-18T01:15:15.466Z,100784.94
2022-10-18T01:20:43.149Z,100782.52
2022-10-18T01:26:01.000Z,100772.46
2022-10-18T01:31:33.027Z,100763.14
2022-10-18T01:36:43.889Z,100761.48
2022-10-18T01:41:49.357Z,100762.23
2022-10-18T01:46:54.439Z,100756.24
2022-10-18T01:51:57.266Z,100753.64
2022-10-18T01:57:17.001Z,100754.41
2022-10-18T02:02:42.670Z,100758.67
2022-10-18T02:08:12.409Z,100749.73
2022-10-18T02:13:29.506Z,100749.06
2022-10-18T02:18:39.171Z,100744.67
2022-10-18T02:23:45.144Z,100745.66
2022-10-18T02:28:48.358Z,100742.63
2022-10-18T02:33:56.893Z,100743.15
2022-10-18T02:39:04.782Z,100747.19
2022-10-18T02:44:07.618Z,100750.73
2022-10-18T02:49:10.545Z,100754.23
2022-10-18T02:54:13.323Z,100759.19
2022-10-18T02:59:16.642Z,100759.57
2022-10-18T03:04:19.598Z,100759.65
2022-10-18T03:09:22.649Z,100761.95
2022-10-18T03:14:25.453Z,100777.97
2022-10-18T03:19:28.260Z,100792.32
2022-10-18T03:24:31.263Z,100789.81
2022-10-18T03:29:34.291Z,100787.65
2022-10-18T03:34:37.170Z,100785.30
2022-10-18T03:39:40.322Z,100791.65
2022-10-18T03:44:43.286Z,100795.51
2022-10-18T03:49:46.090Z,100800.49
2022-10-18T03:54:48.891Z,100804.91
2022-10-18T03:59:51.691Z,100807.19
2022-10-18T04:04:54.496Z,100816.91
2022-10-18T04:09:57.632Z,100820.58
2022-10-18T04:15:00.411Z,100818.66
2022-10-18T04:20:03.717Z,100818.36
2022-10-18T04:25:07.135Z,100810.96
2022-10-18T04:30:10.745Z,100813.25
2022-10-18T04:35:14.174Z,100817.34
2022-10-18T04:40:17.487Z,100824.88
2022-10-18T04:45:20.292Z,100818.28
2022-10-18T04:50:23.093Z,100814.95
2022-10-18T04:55:25.997Z,100823.42
2022-10-18T05:00:28.797Z,100829.18
2022-10-18T05:05:49.661Z,100832.33
2022-10-18T05:10:54.670Z,100839.15
2022-10-18T05:15:59.736Z,100839.85
2022-10-18T05:21:02.735Z,100836.46
2022-10-18T05:26:07.384Z,100830.64
2022-10-18T05:31:11.933Z,100824.11
2022-10-18T05:36:15.061Z,100826.23
2022-10-18T05:41:18.452Z,100832.24
2022-10-18T05:46:21.253Z,100846.42
2022-10-18T05:51:24.155Z,100847.23
2022-10-18T05:56:27.008Z,100852.75
2022-10-18T06:01:29.867Z,100869.38
2022-10-18T06:06:33.513Z,100867.64
2022-10-18T06:11:37.161Z,100864.86
2022-10-18T06:16:40.119Z,100864.61
2022-10-18T06:21:44.551Z,100857.73
2022-10-18T06:26:47.865Z,100857.00
2022-10-18T06:31:50.770Z,100869.92
2022-10-18T06:36:56.386Z,100873.66
2022-10-18T06:42:00.981Z,100868.37
2022-10-18T06:47:04.499Z,100865.55
2022-10-18T06:52:07.576Z,100866.77
2022-10-18T06:57:10.413Z,100863.60
2022-10-18T07:02:19.768Z,100876.46
2022-10-18T07:07:22.466Z,100882.52
2022-10-18T07:12:25.887Z,100880.91
2022-10-18T07:17:28.861Z,100887.15
2022-10-18T07:22:31.792Z,100886.66
2022-10-18T07:27:39.610Z,100890.58
2022-10-18T07:32:42.619Z,100886.98
2022-10-18T07:37:45.422Z,100893.38
2022-10-18T07:42:48.221Z,100902.86
2022-10-18T07:47:56.294Z,100903.28
2022-10-18T07:52:59.354Z,100911.60
2022-10-18T07:58:02.158Z,100907.70
2022-10-18T08:03:05.266Z,100907.57
2022-10-18T08:08:08.301Z,100913.77
2022-10-18T08:13:11.295Z,100916.97
2022-10-18T08:18:14.492Z,100920.77
2022-10-18T08:23:17.292Z,100910.99
2022-10-18T08:28:20.914Z,100910.95
2022-10-18T08:33:23.723Z,100914.91
2022-10-18T08:38:31.546Z,100915.97
2022-10-18T08:43:47.546Z,100911.17
2022-10-18T08:48:54.244Z,100895.40
2022-10-18T08:54:04.629Z,100877.27
2022-10-18T08:59:12.750Z,100866.59
2022-10-18T09:04:34.389Z,100862.05
2022-10-18T09:10:02.200Z,100868.55
2022-10-18T09:15:14.186Z,100897.82
2022-10-18T09:20:31.445Z,100904.77
2022-10-18T09:25:49.906Z,100890.50
2022-10-18T09:31:05.513Z,100871.35
2022-10-18T09:36:11.176Z,100852.89
2022-10-18T09:41:19.996Z,100843.39
2022-10-18T09:46:27.882Z,100867.27
2022-10-18T09:51:40.986Z,100873.16
2022-10-18T09:57:09.386Z,100861.59
2022-10-18T10:02:19.843Z,100847.77
2022-10-18T10:07:35.449Z,100830.31
2022-10-18T10:12:40.218Z,100843.41
2022-10-18T10:17:43.666Z,100838.17
2022-10-18T10:22:48.046Z,100841.08
2022-10-18T10:27:51.082Z,100842.06
2022-10-18T10:32:55.828Z,100847.79
2022-10-18T10:37:59.043Z,100853.08
2022-10-18T10:43:18.187Z,100851.09
2022-10-18T10:48:41.200Z,100850.55
2022-10-18T10:53:50.976Z,100851.00
2022-10-18T10:58:58.505Z,100849.98
2022-10-18T11:04:23.106Z,100841.80
2022-10-18T11:09:38.574Z,100848.27
2022-10-18T11:14:46.003Z,100846.21
2022-10-18T11:20:07.234Z,100836.71
2022-10-18T11:25:15.565Z,100833.73
2022-10-18T11:30:37.926Z,100827.85
2022-10-18T11:36:03.550Z,100829.13
2022-10-18T11:41:17.122Z,100826.09
2022-10-18T11:46:32.721Z,100807.67
2022-10-18T11:51:56.330Z,100807.46
2022-10-18T11:57:16.438Z,100801.85
2022-10-18T12:02:47.638Z,100786.33
2022-10-18T12:07:58.989Z,100774.40
2022-10-18T12:13:06.908Z,100766.01
2022-10-18T12:18:23.537Z,100759.39
2022-10-18T12:23:29.307Z,100751.58
2022-10-18T12:28:51.734Z,100745.02
2022-10-18T12:34:00.613Z,100740.05
2022-10-18T12:39:11.201Z,100741.63
2022-10-18T12:44:24.546Z,100747.27
2022-10-18T12:49:40.179Z,100748.39
2022-10-18T12:55:03.941Z,100743.00
2022-10-18T13:00:27.533Z,100737.77
2022-10-18T13:05:55.048Z,100721.88
2022-10-18T13:11:01.806Z,100707.85
2022-10-18T13:16:12.087Z,100715.65
2022-10-18T13:21:42.129Z,100699.47
2022-10-18T13:27:24.352Z,100682.45
2022-10-18T13:33:09.770Z,100679.27
2022-10-18T13:38:34.779Z,100689.86
2022-10-18T13:43:53.313Z,100683.37
2022-10-18T13:49:17.758Z,100690.83
2022-10-18T13:54:42.575Z,100694.27
2022-10-18T14:00:04.021Z,100701.14
2022-10-18T14:05:25.643Z,100692.14
2022-10-18T14:10:57.438Z,100694.52
2022-10-18T14:16:25.126Z,100686.23
2022-10-18T14:21:37.482Z,100667.15
2022-10-18T14:26:40.375Z,100655.73
2022-10-18T14:31:50.630Z,100656.01
2022-10-18T14:36:53.543Z,100654.30
2022-10-18T14:41:58.594Z,100635.74
2022-10-18T14:47:13.478Z,100624.58
2022-10-18T14:52:24.046Z,100629.18
2022-10-18T14:57:33.977Z,100615.60
2022-10-18T15:02:38.984Z,100617.86
2022-10-18T15:07:42.044Z,100623.67
2022-10-18T15:13:08.196Z,100605.16
2022-10-18T15:18:19.525Z,100626.92
2022-10-18T15:23:28.387Z,100644.44
2022-10-18T15:28:49.947Z,100637.82
2022-10-18T15:33:55.497Z,100609.02
2022-10-18T15:39:15.091Z,100598.31
2022-10-18T15:44:20.759Z,100590.61
2022-10-18T15:49:45.486Z,100597.13
2022-10-18T16:00:08.360Z,100599.33
2022-10-18T16:05:17.089Z,100600.20
2022-10-18T16:10:20.337Z,100593.64
2022-10-18T16:15:23.446Z,100600.85
2022-10-18T16:20:27.372Z,100597.64
2022-10-18T16:25:30.275Z,100613.88
2022-10-18T16:30:35.432Z,100611.54
2022-10-18T16:35:38.438Z,100607.05
2022-10-18T16:40:41.572Z,100612.65
2022-10-18T16:45:44.892Z,100623.27
2022-10-18T16:50:48.772Z,100624.79
2022-10-18T16:55:59.998Z,100623.27
2022-10-18T17:01:05.417Z,100625.04
2022-10-18T17:06:32.729Z,100625.92
2022-10-18T17:11:35.539Z,100620.80
2022-10-18T17:16:39.231Z,100619.44
2022-10-18T17:21:42.165Z,100615.14
2022-10-18T17:26:44.963Z,100615.17
2022-10-18T17:31:47.763Z,100609.24
2022-10-18T17:36:50.564Z,100610.77
2022-10-18T17:41:56.141Z,100623.21
2022-10-18T17:46:58.931Z,100636.09
2022-10-18T17:52:06.085Z,100633.11
2022-10-18T17:57:10.066Z,100633.48
2022-10-18T18:02:12.867Z,100642.72
2022-10-18T18:07:16.080Z,100645.92
2022-10-18T18:12:19.322Z,100648.64
2022-10-18T18:17:28.772Z,100645.18
2022-10-18T18:22:40.497Z,100644.54
2022-10-18T18:27:45.411Z,100645.96
2022-10-18T18:32:48.213Z,100648.23
2022-10-18T18:37:51.163Z,100643.33
2022-10-18T18:43:07.006Z,100639.59
2022-10-18T18:48:19.096Z,100639.08
2022-10-18T18:53:27.121Z,100641.20
2022-10-18T18:58:32.718Z,100638.88
2022-10-18T19:03:37.062Z,100634.29
2022-10-18T19:08:40.911Z,100628.34
2022-10-18T19:13:44.752Z,100629.77
2022-10-18T19:18:59.923Z,100634.90
2022-10-18T19:24:04.647Z,100634.02
2022-10-18T19:29:21.704Z,100632.52
2022-10-18T19:34:26.145Z,100633.54
2022-10-18T19:39:34.578Z,100633.40
2022-10-18T19:44:37.721Z,100635.61
2022-10-18T19:49:42.986Z,100632.45
2022-10-18T19:54:45.850Z,100629.44
2022-10-18T19:59:48.659Z,100625.29
2022-10-18T20:04:51.453Z,100615.01
2022-10-18T20:09:54.257Z,100612.97
2022-10-18T20:14:57.570Z,100615.85
2022-10-18T20:20:00.372Z,100622.48
2022-10-18T20:25:03.377Z,100621.13
2022-10-18T20:30:10.436Z,100620.48
2022-10-18T20:35:14.511Z,100617.45
2022-10-18T20:40:17.414Z,100615.81
2022-10-18T20:45:20.216Z,100618.87
2022-10-18T20:50:23.126Z,100621.50
2022-10-18T20:55:25.929Z,100615.77
2022-10-18T21:00:29.032Z,100595.90
2022-10-18T21:05:32.999Z,100592.92
2022-10-18T21:10:35.866Z,100595.10
2022-10-18T21:15:39.076Z,100596.20
2022-10-18T21:20:41.878Z,100588.85
2022-10-18T21:25:50.724Z,100586.23
2022-10-18T21:30:53.524Z,100584.55
2022-10-18T21:35:56.323Z,100580.74
2022-10-18T21:40:59.130Z,100577.02
2022-10-18T21:46:02.034Z,100579.80
2022-10-18T21:51:07.307Z,100578.02
2022-10-18T21:56:15.928Z,100569.48
2022-10-18T22:01:39.527Z,100561.14
2022-10-18T22:06:42.838Z,100554.59
2022-10-18T22:11:49.341Z,100553.77
2022-10-18T22:16:52.335Z,100547.55
2022-10-18T22:21:55.128Z,100541.00
2022-10-18T22:26:58.138Z,100536.53
2022-10-18T22:32:01.962Z,100526.52
2022-10-18T22:37:04.765Z,100513.45
2022-10-18T22:42:07.771Z,100507.58
2022-10-18T22:47:10.574Z,100498.10
2022-10-18T22:52:13.384Z,100483.23
2022-10-18T22:57:16.175Z,100477.77
2022-10-18T23:02:18.980Z,100478.77
2022-10-18T23:07:21.884Z,100486.02
2022-10-18T23:12:24.686Z,100493.91
2022-10-18T23:17:27.487Z,100487.84
2022-10-18T23:22:30.597Z,100477.50
2022-10-18T23:27:33.771Z,100468.48
2022-10-18T23:32:38.621Z,100478.69
2022-10-18T23:37:41.456Z,100471.56
2022-10-18T23:42:44.257Z,100465.99
2022-10-18T23:47:47.065Z,100460.66
2022-10-18T23:52:49.863Z,100454.61
2022-10-18T23:57:52.870Z,100448.96
